Time;durP1;ratioP1;P1;durP2;ratioP2;P2;SDS_P1;SDS_P2;PMS_P1;PMS_P2;Temp;Humidity;BMP_temperature;BMP_pressure;BME280_temperature;BME280_humidity;BME280_pressure;Samples;Min_cycle;Max_cycle;Signal;HPM_P1;HPM_P2
2021/12/18 00:02:13;;;;;;;21.08;11.45;;;4.10;96.10;;;;;;4984623;28;20033;-70
2021/12/18 00:04:39;;;;;;;21.90;10.15;;;4.10;96.00;;;;;;4966808;28;20031;-70
2021/12/18 00:07:06;;;;;;;24.75;10.88;;;4.10;95.90;;;;;;4982988;28;20027;-69
2021/12/18 00:09:33;;;;;;;22.83;11.75;;;4.10;95.80;;;;;;5001582;28;20029;-71
2021/12/18 00:11:59;;;;;;;21.38;10.27;;;4.10;95.80;;;;;;4986772;28;20022;-70
2021/12/18 00:14:26;;;;;;;24.05;10.70;;;4.10;95.80;;;;;;4986971;28;20022;-70
2021/12/18 00:16:51;;;;;;;22.55;11.00;;;4.10;95.80;;;;;;5003185;28;20082;-70
2021/12/18 00:19:24;;;;;;;25.67;11.57;;;4.20;95.90;;;;;;5004235;28;20041;-70
2021/12/18 00:21:49;;;;;;;22.73;11.60;;;4.20;95.90;;;;;;5004260;28;20033;-70
2021/12/18 00:24:15;;;;;;;22.77;10.80;;;4.20;95.80;;;;;;5003617;28;20089;-70
2021/12/18 00:26:41;;;;;;;23.50;10.95;;;4.20;95.90;;;;;;5004212;28;20018;-71
2021/12/18 00:29:07;;;;;;;24.08;12.35;;;4.10;95.90;;;;;;5004079;28;20030;-70
2021/12/18 00:31:33;;;;;;;24.67;10.88;;;4.10;95.90;;;;;;5003224;28;20034;-71
2021/12/18 00:33:58;;;;;;;22.13;10.38;;;4.10;95.70;;;;;;5003977;28;20022;-70
2021/12/18 00:36:24;;;;;;;20.67;10.50;;;4.10;95.70;;;;;;5003594;28;20045;-70
2021/12/18 00:38:50;;;;;;;20.95;10.25;;;4.10;95.70;;;;;;4990338;28;20019;-69
2021/12/18 00:41:35;;;;;;;21.40;9.45;;;4.10;95.90;;;;;;4984354;28;20026;-70
2021/12/18 00:44:02;;;;;;;21.67;10.73;;;4.10;95.80;;;;;;4984351;28;20023;-69
2021/12/18 00:46:30;;;;;;;21.50;9.70;;;4.10;95.70;;;;;;4982581;28;20026;-69
2021/12/18 00:48:56;;;;;;;22.27;10.05;;;4.10;95.70;;;;;;4983128;28;20077;-69
2021/12/18 00:51:22;;;;;;;20.17;9.97;;;4.10;95.50;;;;;;4984245;28;20027;-69
2021/12/18 00:53:48;;;;;;;22.13;9.80;;;4.00;95.70;;;;;;4983797;28;20098;-70
2021/12/18 00:56:14;;;;;;;19.85;9.70;;;4.10;95.70;;;;;;5002081;28;20032;-70
2021/12/18 00:58:40;;;;;;;20.63;9.48;;;4.10;95.80;;;;;;5003600;28;20046;-70
2021/12/18 01:01:09;;;;;;;20.38;9.13;;;4.10;95.80;;;;;;5002499;28;20052;-70
2021/12/18 01:03:36;;;;;;;22.13;10.45;;;4.10;95.70;;;;;;5003387;28;20068;-70
2021/12/18 01:06:03;;;;;;;21.92;10.00;;;4.20;95.70;;;;;;5003198;28;20081;-70
2021/12/18 01:08:28;;;;;;;23.48;10.85;;;4.20;95.70;;;;;;5003171;28;20339;-70
2021/12/18 01:13:25;;;;;;;18.67;9.50;;;4.20;95.70;;;;;;5002229;28;20026;-70
2021/12/18 01:15:54;;;;;;;18.10;9.82;;;4.20;95.70;;;;;;5002949;28;20226;-70
2021/12/18 01:23:49;;;;;;;18.85;9.52;;;4.30;95.40;;;;;;4983473;28;20062;-69
2021/12/18 01:26:16;;;;;;;19.57;9.77;;;4.30;95.60;;;;;;4983452;28;20089;-70
2021/12/18 01:28:42;;;;;;;;;;;4.20;95.70;;;;;;4984176;28;20027;-70
2021/12/18 01:31:09;;;;;;;19.48;9.43;;;4.30;95.70;;;;;;4983723;28;19945;-69
2021/12/18 01:33:35;;;;;;;20.65;9.45;;;4.30;95.60;;;;;;4983611;28;20037;-70
2021/12/18 01:36:01;;;;;;;21.40;9.88;;;4.20;95.80;;;;;;4982267;28;20206;-72
2021/12/18 01:38:29;;;;;;;21.90;10.70;;;4.20;95.90;;;;;;4982297;28;20023;-71
2021/12/18 01:40:56;;;;;;;22.42;10.75;;;4.20;95.90;;;;;;4982520;28;20070;-71
2021/12/18 01:53:49;;;;;;;21.17;10.85;;;4.20;95.80;;;;;;4993004;28;20049;-71
2021/12/18 01:56:15;;;;;;;24.67;11.05;;;4.20;95.80;;;;;;4997009;28;20038;-68
2021/12/18 01:58:44;;;;;;;25.88;11.75;;;4.10;96.00;;;;;;5009458;28;20090;-68
2021/12/18 02:01:09;;;;;;;23.27;10.32;;;4.00;96.10;;;;;;5009575;28;20026;-68
2021/12/18 02:03:35;;;;;;;22.07;11.30;;;4.10;96.10;;;;;;5010946;28;20026;-68
2021/12/18 02:06:01;;;;;;;22.75;12.18;;;4.10;96.20;;;;;;5009081;28;20309;-69
2021/12/18 02:08:28;;;;;;;23.85;11.10;;;4.00;96.10;;;;;;5009490;28;20037;-69
2021/12/18 02:11:00;;;;;;;21.83;11.43;;;4.10;96.00;;;;;;5008898;28;20025;-69
2021/12/18 02:21:38;;;;;;;20.48;9.30;;;4.10;95.70;;;;;;4989707;28;20348;-69
2021/12/18 02:24:04;;;;;;;22.77;11.00;;;4.00;95.70;;;;;;4989436;28;20023;-69
2021/12/18 02:26:30;;;;;;;22.08;11.25;;;4.10;95.70;;;;;;4988400;28;20054;-69
2021/12/18 02:28:59;;;;;;;21.67;11.30;;;4.10;95.60;;;;;;4989640;28;20026;-69
2021/12/18 02:31:25;;;;;;;21.10;10.50;;;4.10;95.50;;;;;;4989688;28;20269;-69
2021/12/18 02:33:51;;;;;;;21.97;10.53;;;4.00;95.60;;;;;;4989520;28;20026;-69
2021/12/18 02:36:25;;;;;;;20.23;9.85;;;4.00;95.80;;;;;;4989229;28;20033;-69
2021/12/18 02:43:53;;;;;;;21.27;9.32;;;4.00;95.70;;;;;;4989625;28;20023;-69
2021/12/18 02:46:20;;;;;;;18.97;10.07;;;4.00;95.70;;;;;;4972039;28;20065;-69
2021/12/18 02:48:48;;;;;;;19.08;8.73;;;4.00;95.60;;;;;;4988407;28;20030;-68
2021/12/18 02:51:14;;;;;;;19.42;9.35;;;4.00;95.60;;;;;;4989463;28;20050;-69
2021/12/18 02:53:49;;;;;;;17.80;8.68;;;4.00;95.70;;;;;;4986810;28;20050;-69
2021/12/18 02:56:15;;;;;;;23.92;9.02;;;3.90;95.70;;;;;;4985047;28;20033;-69
2021/12/18 02:58:46;;;;;;;17.60;8.98;;;4.00;95.80;;;;;;4986413;28;20026;-69
2021/12/18 03:01:17;;;;;;;19.88;9.15;;;3.90;95.90;;;;;;4985299;28;20217;-69
2021/12/18 03:03:43;;;;;;;22.90;10.15;;;3.90;95.90;;;;;;4985154;28;20022;-68
2021/12/18 03:27:17;;;;;;;18.57;9.73;;;3.90;96.40;;;;;;4985911;28;20033;-71
2021/12/18 03:29:43;;;;;;;23.13;10.15;;;4.00;96.40;;;;;;4984777;28;20053;-71
2021/12/18 03:32:09;;;;;;;20.00;11.02;;;4.00;96.40;;;;;;4985700;28;20068;-71
2021/12/18 03:34:35;;;;;;;20.45;9.88;;;4.00;96.30;;;;;;4985430;28;20018;-71
2021/12/18 03:37:01;;;;;;;24.40;10.70;;;4.00;96.40;;;;;;4985587;28;20023;-71
2021/12/18 03:39:27;;;;;;;22.15;11.25;;;4.00;96.40;;;;;;4984862;28;20029;-71
2021/12/18 03:41:56;;;;;;;20.83;10.10;;;4.00;96.50;;;;;;4985458;28;20050;-71
2021/12/18 03:44:22;;;;;;;20.38;10.27;;;4.00;96.50;;;;;;4985383;28;20199;-71
2021/12/18 03:46:47;;;;;;;23.77;9.30;;;3.90;96.20;;;;;;4985435;28;20061;-70
2021/12/18 03:49:14;;;;;;;23.10;10.27;;;3.90;96.40;;;;;;4984311;28;20037;-70
2021/12/18 03:51:39;;;;;;;20.60;9.48;;;3.90;96.20;;;;;;4983565;28;20089;-69
2021/12/18 03:54:05;;;;;;;17.65;9.23;;;3.90;96.20;;;;;;5002195;28;20041;-69
2021/12/18 03:56:31;;;;;;;17.77;9.27;;;3.90;96.20;;;;;;5004267;28;20038;-69
2021/12/18 03:58:57;;;;;;;20.13;9.45;;;3.90;96.10;;;;;;5004645;28;20026;-70
2021/12/18 04:01:23;;;;;;;18.77;9.43;;;3.80;96.10;;;;;;5003606;28;20030;-71
2021/12/18 04:03:49;;;;;;;21.20;9.23;;;3.80;96.20;;;;;;5004547;28;20022;-70
2021/12/18 04:06:15;;;;;;;18.48;8.32;;;3.90;96.30;;;;;;5002879;28;20026;-70
2021/12/18 04:08:40;;;;;;;17.90;9.05;;;3.90;96.30;;;;;;5004455;28;20022;-70
2021/12/18 04:11:07;;;;;;;17.27;8.85;;;3.90;96.20;;;;;;5004170;28;20332;-70
2021/12/18 04:13:32;;;;;;;15.60;7.80;;;3.90;96.20;;;;;;5003300;28;20049;-70
2021/12/18 04:15:58;;;;;;;20.48;9.30;;;3.90;96.30;;;;;;5004067;28;20313;-70
2021/12/18 04:18:24;;;;;;;16.55;8.85;;;3.90;96.20;;;;;;5004333;28;20072;-70
2021/12/18 04:20:50;;;;;;;19.73;9.07;;;3.90;96.20;;;;;;4986607;28;20049;-71
2021/12/18 04:23:16;;;;;;;19.00;9.68;;;3.90;96.20;;;;;;5004111;28;20048;-71
2021/12/18 04:25:42;;;;;;;21.13;10.02;;;3.90;96.10;;;;;;4986573;28;20026;-70
2021/12/18 04:28:08;;;;;;;18.50;8.88;;;3.90;96.20;;;;;;5004136;28;20030;-70
2021/12/18 04:30:33;;;;;;;24.50;9.82;;;4.00;96.20;;;;;;5003966;28;20116;-70
2021/12/18 04:32:59;;;;;;;25.57;11.27;;;4.00;96.20;;;;;;4999513;28;20030;-70
2021/12/18 04:35:27;;;;;;;18.77;9.57;;;4.00;96.20;;;;;;4984066;28;20023;-71
2021/12/18 04:37:53;;;;;;;19.38;9.00;;;4.00;96.30;;;;;;4983371;28;20029;-70
2021/12/18 04:40:25;;;;;;;19.98;9.30;;;4.00;96.20;;;;;;4983478;28;20019;-71
2021/12/18 04:42:51;;;;;;;22.02;10.27;;;4.00;96.10;;;;;;4983526;28;20101;-70
2021/12/18 04:45:16;;;;;;;24.80;10.77;;;4.00;96.30;;;;;;4984221;28;20094;-71
2021/12/18 04:47:42;;;;;;;18.73;9.07;;;4.00;96.20;;;;;;4983298;28;20038;-71
2021/12/18 04:50:08;;;;;;;18.77;9.05;;;4.00;96.20;;;;;;4990484;28;20029;-70
2021/12/18 04:52:34;;;;;;;20.80;10.40;;;4.00;96.30;;;;;;5003462;28;20273;-70
2021/12/18 04:55:00;;;;;;;20.52;8.77;;;4.00;96.20;;;;;;5003365;28;20300;-69
2021/12/18 04:57:26;;;;;;;24.08;9.70;;;4.00;96.30;;;;;;5003792;28;20030;-69
2021/12/18 04:59:52;;;;;;;18.90;9.40;;;4.00;96.20;;;;;;5003614;28;20054;-69
2021/12/18 05:02:18;;;;;;;23.17;10.63;;;4.00;96.20;;;;;;5002463;28;20030;-69
2021/12/18 05:04:44;;;;;;;20.48;9.75;;;4.10;96.10;;;;;;5003396;28;20014;-68
2021/12/18 05:07:11;;;;;;;20.65;9.63;;;4.10;95.80;;;;;;5003237;28;20026;-69
2021/12/18 05:09:40;;;;;;;21.45;8.75;;;4.00;96.10;;;;;;5018782;28;20218;-69
2021/12/18 05:12:07;;;;;;;20.73;9.38;;;4.00;96.20;;;;;;5002262;28;20023;-69
2021/12/18 05:14:32;;;;;;;17.55;9.38;;;4.00;96.30;;;;;;4986065;28;20044;-69
2021/12/18 05:16:58;;;;;;;19.42;10.27;;;4.00;96.40;;;;;;5002825;28;20035;-69
2021/12/18 05:19:24;;;;;;;18.73;9.13;;;4.00;96.50;;;;;;5003325;28;20022;-69
2021/12/18 05:21:50;;;;;;;22.73;10.23;;;4.00;96.40;;;;;;5003041;28;20026;-69
2021/12/18 05:24:16;;;;;;;21.55;10.60;;;4.00;96.30;;;;;;5003129;28;20026;-69
2021/12/18 05:26:41;;;;;;;18.95;9.55;;;4.00;96.30;;;;;;5003305;28;20379;-70
2021/12/18 05:29:08;;;;;;;;;;;4.00;96.30;;;;;;5003725;28;20111;-70
2021/12/18 05:31:34;;;;;;;19.85;10.05;;;4.00;96.30;;;;;;5003236;28;20201;-70
2021/12/18 05:34:02;;;;;;;21.85;9.55;;;3.90;96.50;;;;;;5003133;28;20030;-69
2021/12/18 05:39:10;;;;;;;22.58;10.85;;;3.90;96.20;;;;;;4997151;28;20022;-70
2021/12/18 05:41:36;;;;;;;20.92;10.13;;;4.00;96.20;;;;;;4984738;28;20022;-69
2021/12/18 05:44:03;;;;;;;22.13;8.77;;;4.00;96.30;;;;;;4984570;28;20021;-69
2021/12/18 05:46:29;;;;;;;;;;;4.00;96.20;;;;;;4984548;28;20038;-69
2021/12/18 05:48:55;;;;;;;;;;;4.00;96.10;;;;;;4984421;28;19974;-69
2021/12/18 05:51:20;;;;;;;;;;;4.00;96.20;;;;;;4983874;28;19938;-69
2021/12/18 05:53:46;;;;;;;;;;;4.00;96.30;;;;;;4983454;28;19972;-69
2021/12/18 05:56:12;;;;;;;;;;;4.00;96.40;;;;;;4982660;28;19925;-69
2021/12/18 05:58:38;;;;;;;;;;;4.00;96.40;;;;;;4983832;28;19969;-70
2021/12/18 06:01:04;;;;;;;;;;;4.00;96.40;;;;;;4983842;28;19948;-70
2021/12/18 06:03:30;;;;;;;;;;;4.00;96.20;;;;;;4983685;28;19914;-69
2021/12/18 06:05:55;;;;;;;;;;;4.00;96.30;;;;;;4982337;28;19960;-69
2021/12/18 06:08:21;;;;;;;;;;;4.10;96.20;;;;;;4983879;28;19945;-69
2021/12/18 06:10:47;;;;;;;;;;;4.10;96.20;;;;;;4983800;28;19910;-70
2021/12/18 06:13:12;;;;;;;;;;;4.10;96.30;;;;;;4983760;28;19906;-70
2021/12/18 06:15:38;;;;;;;;;;;4.00;96.20;;;;;;4981228;28;19981;-70
2021/12/18 06:18:04;;;;;;;;;;;4.00;96.30;;;;;;4982611;28;19952;-70
2021/12/18 06:20:30;;;;;;;;;;;4.00;96.10;;;;;;4993861;28;19933;-69
2021/12/18 06:22:56;;;;;;;;;;;4.00;96.10;;;;;;5010371;28;19909;-69
2021/12/18 06:25:22;;;;;;;;;;;4.00;96.00;;;;;;4982574;28;19906;-68
2021/12/18 06:27:47;;;;;;;;;;;4.00;96.00;;;;;;4981698;28;19913;-69
2021/12/18 06:30:14;;;;;;;;;;;4.10;96.10;;;;;;4985443;28;19913;-68
2021/12/18 06:32:40;;;;;;;;;;;4.00;96.00;;;;;;4985207;28;19905;-69
2021/12/18 06:35:07;;;;;;;;;;;4.00;96.20;;;;;;4985551;28;19952;-69
2021/12/18 06:37:33;;;;;;;;;;;4.00;96.30;;;;;;4986264;28;19906;-69
2021/12/18 06:39:58;;;;;;;;;;;4.00;96.20;;;;;;4985789;28;19921;-69
2021/12/18 06:42:24;;;;;;;;;;;4.00;96.20;;;;;;4985837;28;20215;-70
2021/12/18 06:44:50;;;;;;;;;;;4.00;96.10;;;;;;4985604;28;19906;-70
2021/12/18 06:47:15;;;;;;;;;;;4.00;96.20;;;;;;4985765;28;19969;-68
2021/12/18 06:49:41;;;;;;;;;;;4.00;96.10;;;;;;4985632;28;20231;-67
2021/12/18 06:52:07;;;;;;;;;;;4.00;96.20;;;;;;4985563;28;19930;-67
2021/12/18 06:54:32;;;;;;;;;;;4.00;96.20;;;;;;4985147;28;20100;-70
2021/12/18 06:56:59;;;;;;;;;;;4.10;96.40;;;;;;4985992;28;19910;-69
2021/12/18 06:59:25;;;;;;;;;;;4.10;95.90;;;;;;4984614;28;19949;-71
2021/12/18 07:01:52;;;;;;;;;;;4.10;95.90;;;;;;4985838;28;20416;-71
2021/12/18 07:04:23;;;;;;;;;;;4.10;96.20;;;;;;4984476;28;19913;-71
2021/12/18 07:06:48;;;;;;;;;;;4.10;95.90;;;;;;4985821;28;19906;-71
2021/12/18 07:09:14;;;;;;;;;;;4.10;95.80;;;;;;4984637;28;19960;-71
2021/12/18 07:11:40;;;;;;;;;;;4.10;95.80;;;;;;4987936;28;19921;-70
2021/12/18 07:14:06;;;;;;;;;;;4.10;95.80;;;;;;5003805;28;19906;-71
2021/12/18 07:16:31;;;;;;;;;;;4.00;95.90;;;;;;5004319;28;19968;-71
2021/12/18 07:18:57;;;;;;;;;;;4.10;95.90;;;;;;5004530;28;19906;-71
2021/12/18 07:21:23;;;;;;;;;;;4.10;96.00;;;;;;5003981;28;20156;-71
2021/12/18 07:23:48;;;;;;;;;;;4.10;96.00;;;;;;5005384;28;19912;-71
2021/12/18 07:26:14;;;;;;;;;;;4.10;96.00;;;;;;5004750;28;20086;-71
2021/12/18 07:28:40;;;;;;;;;;;4.10;95.70;;;;;;5004456;28;19912;-71
2021/12/18 07:31:06;;;;;;;;;;;4.10;95.70;;;;;;5004408;28;19906;-71
2021/12/18 07:33:32;;;;;;;;;;;4.10;95.80;;;;;;5003320;28;19906;-71
2021/12/18 07:35:58;;;;;;;;;;;4.10;95.80;;;;;;5002411;28;19916;-71
2021/12/18 07:38:23;;;;;;;;;;;4.00;95.90;;;;;;5002919;28;19906;-71
2021/12/18 07:40:49;;;;;;;;;;;4.10;96.10;;;;;;4984237;28;20229;-71
2021/12/18 07:43:15;;;;;;;;;;;4.10;96.00;;;;;;4985214;28;19906;-71
2021/12/18 07:45:40;;;;;;;;;;;4.10;96.00;;;;;;4983774;28;20320;-71
2021/12/18 07:48:06;;;;;;;;;;;4.10;95.70;;;;;;4983934;28;19906;-71
2021/12/18 07:50:32;;;;;;;;;;;4.10;95.60;;;;;;4985136;28;19906;-71
2021/12/18 07:52:58;;;;;;;;;;;4.10;95.50;;;;;;4967653;28;19940;-71
2021/12/18 07:55:24;;;;;;;;;;;4.10;95.50;;;;;;4982552;28;20093;-71
2021/12/18 07:57:54;;;;;;;;;;;4.10;95.40;;;;;;4987388;28;19913;-71
2021/12/18 08:00:19;;;;;;;;;;;4.10;95.60;;;;;;4984446;28;19969;-71
2021/12/18 08:02:45;;;;;;;;;;;4.20;95.40;;;;;;4983535;28;19913;-71
2021/12/18 08:05:11;;;;;;;;;;;4.10;95.50;;;;;;4984510;28;19973;-72
2021/12/18 08:07:36;;;;;;;;;;;4.10;95.60;;;;;;4984863;28;19906;-74
2021/12/18 08:10:03;;;;;;;;;;;4.10;95.70;;;;;;4967261;28;20093;-71
2021/12/18 08:12:29;;;;;;;;;;;4.10;95.80;;;;;;4984398;28;19905;-71
2021/12/18 08:14:55;;;;;;;;;;;4.10;95.90;;;;;;4983654;28;20257;-71
2021/12/18 08:17:22;;;;;;;;;;;4.10;95.80;;;;;;4983244;28;20089;-71
2021/12/18 08:19:48;;;;;;;;;;;4.20;95.80;;;;;;4966782;28;19906;-72
2021/12/18 08:22:14;;;;;;;;;;;4.20;95.70;;;;;;4984260;28;19912;-71
2021/12/18 08:24:39;;;;;;;;;;;4.20;95.80;;;;;;4983996;28;19906;-71
2021/12/18 08:27:05;;;;;;;;;;;4.10;95.70;;;;;;4968061;28;19905;-71
2021/12/18 08:29:31;;;;;;;;;;;4.10;96.00;;;;;;5002823;28;19933;-71
2021/12/18 08:31:57;;;;;;;;;;;4.10;96.00;;;;;;4986688;28;19933;-72
2021/12/18 08:34:24;;;;;;;;;;;4.20;95.90;;;;;;5002357;28;20176;-70
2021/12/18 08:36:49;;;;;;;;;;;4.20;95.80;;;;;;5002739;28;20201;-71
2021/12/18 08:39:15;;;;;;;;;;;4.20;95.90;;;;;;4997705;28;19924;-71
2021/12/18 08:41:42;;;;;;;;;;;4.20;95.80;;;;;;5001880;28;20204;-72
2021/12/18 08:44:08;;;;;;;;;;;4.20;95.60;;;;;;5003931;28;19932;-74
2021/12/18 08:46:35;;;;;;;;;;;4.20;95.60;;;;;;5011858;28;19905;-72
2021/12/18 08:49:00;;;;;;;;;;;4.30;95.70;;;;;;5022176;28;19905;-72
2021/12/18 08:51:26;;;;;;;;;;;4.30;95.70;;;;;;5004659;28;19956;-72
2021/12/18 08:53:52;;;;;;;;;;;4.30;95.60;;;;;;5017188;28;19910;-72
2021/12/18 08:56:18;;;;;;;;;;;4.40;95.40;;;;;;5011853;28;19921;-70
2021/12/18 08:58:44;;;;;;;;;;;4.40;95.30;;;;;;5019268;28;19905;-70
2021/12/18 09:01:09;;;;;;;;;;;4.40;95.20;;;;;;5004842;28;19916;-70
2021/12/18 09:03:35;;;;;;;;;;;4.30;95.30;;;;;;5002866;28;19909;-70
2021/12/18 09:06:01;;;;;;;;;;;4.30;95.50;;;;;;5001326;28;19906;-70
2021/12/18 09:08:26;;;;;;;;;;;4.40;95.60;;;;;;5001792;28;20223;-70
2021/12/18 09:10:52;;;;;;;;;;;4.30;95.40;;;;;;5002429;28;19905;-70
2021/12/18 09:13:18;;;;;;;;;;;4.40;95.70;;;;;;5002693;28;19928;-70
2021/12/18 09:15:43;;;;;;;;;;;4.40;95.60;;;;;;5002012;28;19910;-70
2021/12/18 09:18:09;;;;;;;;;;;4.50;95.40;;;;;;5001198;28;19929;-70
2021/12/18 09:20:35;;;;;;;;;;;4.50;95.10;;;;;;5002404;28;19932;-70
2021/12/18 09:23:01;;;;;;;;;;;4.50;95.10;;;;;;5002532;28;19912;-70
2021/12/18 09:25:27;;;;;;;;;;;4.50;95.30;;;;;;5001864;28;20118;-70
2021/12/18 09:27:56;;;;;;;;;;;4.50;95.20;;;;;;5002362;28;19912;-70
2021/12/18 09:30:22;;;;;;;;;;;4.50;95.10;;;;;;5002539;28;19910;-70
2021/12/18 09:32:48;;;;;;;;;;;4.40;95.10;;;;;;5002348;28;19906;-70
2021/12/18 09:35:13;;;;;;;;;;;4.50;94.90;;;;;;5001900;28;19918;-70
2021/12/18 09:37:39;;;;;;;;;;;4.50;94.90;;;;;;5000829;28;19906;-70
2021/12/18 09:40:06;;;;;;;;;;;4.60;94.90;;;;;;4987566;28;19948;-69
2021/12/18 09:42:31;;;;;;;;;;;4.50;95.00;;;;;;4982825;28;20193;-70
2021/12/18 09:44:57;;;;;;;;;;;4.50;94.80;;;;;;4981594;28;19934;-70
2021/12/18 09:47:23;;;;;;;;;;;4.50;94.80;;;;;;4982950;28;19906;-70
2021/12/18 09:49:49;;;;;;;;;;;4.60;94.60;;;;;;4981950;28;20082;-70
2021/12/18 09:52:15;;;;;;;;;;;4.60;94.40;;;;;;4982918;28;19914;-70
2021/12/18 09:54:40;;;;;;;;;;;4.60;94.80;;;;;;4982179;28;19945;-70
2021/12/18 09:57:06;;;;;;;;;;;4.50;94.80;;;;;;4982324;28;19925;-70
2021/12/18 09:59:32;;;;;;;;;;;4.60;94.80;;;;;;4980736;28;19906;-70
2021/12/18 10:01:57;;;;;;;;;;;4.60;94.80;;;;;;4982643;28;20242;-70
2021/12/18 10:04:30;;;;;;;;;;;4.60;94.90;;;;;;4985893;28;19912;-70
2021/12/18 10:06:57;;;;;;;;;;;4.70;94.70;;;;;;4986756;28;19913;-70
2021/12/18 10:09:23;;;;;;;;;;;4.60;95.00;;;;;;4985578;28;20002;-70
2021/12/18 10:11:53;;;;;;;;;;;4.60;94.90;;;;;;4986738;28;20021;-70
2021/12/18 10:14:20;;;;;;;;;;;4.50;94.60;;;;;;4984948;28;19929;-70
2021/12/18 10:16:50;;;;;;;;;;;4.50;95.10;;;;;;4985017;28;20144;-70
2021/12/18 10:19:31;;;;;;;;;;;4.60;95.00;;;;;;4986430;28;20126;-70
2021/12/18 10:21:59;;;;;;;;;;;4.60;94.80;;;;;;4984985;28;19906;-69
2021/12/18 10:24:25;;;;;;;;;;;4.70;94.70;;;;;;4986158;28;20356;-70
2021/12/18 10:26:51;;;;;;;;;;;4.70;94.70;;;;;;4986195;28;19913;-70
2021/12/18 10:29:35;;;;;;;;;;;4.70;94.40;;;;;;4986031;28;19937;-70
2021/12/18 10:32:06;;;;;;;;;;;4.70;94.60;;;;;;4985190;28;19934;-70
2021/12/18 10:34:32;;;;;;;;;;;4.70;94.50;;;;;;4986134;28;20105;-70
2021/12/18 10:37:19;;;;;;;;;;;4.70;94.50;;;;;;4985566;28;19933;-70
2021/12/18 10:39:54;;;;;;;;;;;4.70;94.80;;;;;;4983906;28;19949;-70
2021/12/18 10:42:22;;;;;;;;;;;4.70;94.80;;;;;;4985813;28;19917;-70
2021/12/18 10:44:58;;;;;;;;;;;4.70;94.70;;;;;;4990010;28;19988;-71
2021/12/18 10:47:23;;;;;;;;;;;4.60;94.80;;;;;;5001925;28;19913;-71
2021/12/18 10:49:49;;;;;;;;;;;4.70;94.80;;;;;;5004140;28;19940;-71
2021/12/18 10:52:15;;;;;;;;;;;4.80;94.60;;;;;;5005211;28;20193;-71
2021/12/18 10:54:40;;;;;;;;;;;4.70;94.60;;;;;;5006220;23;20014;-70
2021/12/18 10:57:07;;;;;;;;;;;4.80;94.60;;;;;;4995035;28;19914;-70
2021/12/18 10:59:36;;;;;;;;;;;4.80;94.90;;;;;;4972527;28;20001;-70
2021/12/18 11:02:06;;;;;;;;;;;4.80;94.70;;;;;;4970097;28;20208;-70
2021/12/18 11:04:37;;;;;;;;;;;4.80;94.70;;;;;;4966503;28;19950;-70
2021/12/18 11:07:25;;;;;;;;;;;4.80;94.70;;;;;;4960925;29;19912;-69
2021/12/18 11:10:13;;;;;;;;;;;4.80;94.70;;;;;;4960323;28;19910;-70
2021/12/18 11:15:25;;;;;;;;;;;4.80;94.80;;;;;;4959653;28;19972;-71
2021/12/18 11:17:51;;;;;;;;;;;4.80;94.70;;;;;;4958048;29;19918;-71
2021/12/18 11:20:17;;;;;;;;;;;4.90;94.30;;;;;;4965514;28;19914;-70
2021/12/18 11:22:43;;;;;;;;;;;4.80;94.60;;;;;;4951889;28;19910;-70
2021/12/18 11:25:10;;;;;;;;;;;4.80;94.80;;;;;;4958056;28;20225;-70
2021/12/18 11:27:35;;;;;;;;;;;4.80;94.80;;;;;;4962000;29;19910;-70
2021/12/18 11:30:08;;;;;;;;;;;4.80;94.70;;;;;;4951983;28;20094;-70
2021/12/18 11:32:35;;;;;;;;;;;4.80;94.60;;;;;;4956334;29;19917;-70
2021/12/18 11:35:03;;;;;;;;;;;4.90;94.20;;;;;;4947173;29;19914;-70
2021/12/18 11:37:56;;;;;;;;;;;4.80;94.70;;;;;;4957327;29;19910;-70
2021/12/18 11:40:24;;;;;;;;;;;4.80;94.60;;;;;;4983102;28;19912;-70
2021/12/18 11:42:50;;;;;;;;;;;4.60;94.70;;;;;;4968002;28;19915;-70
2021/12/18 11:45:16;;;;;;;;;;;4.70;94.90;;;;;;4957141;28;19990;-71
2021/12/18 11:47:54;;;;;;;;;;;4.70;95.00;;;;;;4952359;29;19953;-71
2021/12/18 11:50:21;;;;;;;;;;;4.70;95.00;;;;;;4954575;28;19910;-67
2021/12/18 11:53:09;;;;;;;;;;;4.70;94.90;;;;;;4950665;28;19906;-67
2021/12/18 11:55:34;;;;;;;;;;;4.70;94.80;;;;;;4953779;28;19914;-67
2021/12/18 11:58:21;;;;;;;;;;;4.70;94.80;;;;;;4956511;29;19954;-67
2021/12/18 12:00:51;;;;;;;;;;;4.70;94.80;;;;;;4959933;28;19910;-68
2021/12/18 12:03:27;;;;;;;;;;;4.80;94.70;;;;;;4964594;29;19929;-68
2021/12/18 12:05:54;;;;;;;;;;;4.80;94.40;;;;;;4964875;28;20205;-70
2021/12/18 12:08:28;;;;;;;;;;;4.80;94.00;;;;;;4965220;28;19961;-68
2021/12/18 12:11:15;;;;;;;;;;;4.70;93.50;;;;;;4965798;28;19918;-68
2021/12/18 12:14:03;;;;;;;;;;;4.70;93.80;;;;;;4959120;28;19910;-69
2021/12/18 12:16:46;;;;;;;;;;;4.70;94.00;;;;;;4964513;29;20086;-68
2021/12/18 12:19:19;;;;;;;;;;;4.80;93.60;;;;;;4964318;28;19910;-68
2021/12/18 12:21:52;;;;;;;;;;;4.90;93.00;;;;;;4964585;28;19906;-69
2021/12/18 12:24:23;;;;;;;;;;;4.90;93.20;;;;;;4956018;28;20197;-69
2021/12/18 12:26:49;;;;;;;;;;;4.80;93.10;;;;;;4945693;29;19911;-69
2021/12/18 12:29:15;;;;;;;;;;;4.70;93.30;;;;;;4947721;29;19929;-69
2021/12/18 12:31:58;;;;;;;;;;;4.70;93.50;;;;;;4945958;29;20227;-69
2021/12/18 12:34:34;;;;;;;;;;;4.80;93.20;;;;;;4953308;29;20220;-69
2021/12/18 12:37:51;;;;;;;;;;;4.70;93.50;;;;;;4947503;29;19914;-69
2021/12/18 12:40:28;;;;;;;;;;;4.70;93.80;;;;;;4943967;28;19960;-72
2021/12/18 12:43:12;;;;;;;;;;;4.70;94.00;;;;;;4949427;29;19917;-72
2021/12/18 12:45:40;;;;;;;;;;;4.70;94.20;;;;;;4949530;29;20218;-72
2021/12/18 12:48:06;;;;;;;;;;;4.70;94.30;;;;;;4949500;29;20148;-72
2021/12/18 12:50:32;;;;;;;;;;;4.70;94.10;;;;;;4956022;29;19925;-72
2021/12/18 12:53:08;;;;;;;;;;;4.60;94.00;;;;;;4961422;28;19965;-72
2021/12/18 12:55:41;;;;;;;;;;;4.60;94.20;;;;;;4951510;28;19914;-79
2021/12/18 12:58:26;;;;;;;;;;;4.60;94.20;;;;;;4946675;29;19941;-77
2021/12/18 13:00:53;;;;;;;;;;;4.60;94.20;;;;;;4951260;28;19914;-74
2021/12/18 13:03:21;;;;;;;;;;;4.50;94.10;;;;;;4955712;28;19973;-76
2021/12/18 13:06:00;;;;;;;;;;;4.60;94.30;;;;;;4953108;28;19913;-77
2021/12/18 13:08:26;;;;;;;;;;;4.60;94.20;;;;;;4958013;29;19916;-76
2021/12/18 13:10:54;;;;;;;;;;;4.60;94.20;;;;;;4940000;29;19906;-76
2021/12/18 13:13:22;;;;;;;;;;;4.60;94.00;;;;;;4966137;28;19973;-76
2021/12/18 13:16:09;;;;;;;;;;;4.60;94.20;;;;;;4956313;28;19942;-77
2021/12/18 13:18:37;;;;;;;;;;;4.50;94.30;;;;;;4962238;28;20116;-69
2021/12/18 13:21:08;;;;;;;;;;;4.50;94.30;;;;;;4949291;29;19914;-69
2021/12/18 13:23:38;;;;;;;;;;;4.50;94.40;;;;;;4954977;29;20546;-77
2021/12/18 13:26:05;;;;;;;;;;;4.60;94.20;;;;;;4974825;28;20102;-76
2021/12/18 13:28:31;;;;;;;;;;;4.40;94.40;;;;;;4959479;29;19918;-76
2021/12/18 13:30:57;;;;;;;;;;;4.40;94.60;;;;;;4952278;28;19906;-69
2021/12/18 13:33:29;;;;;;;;;;;4.40;94.70;;;;;;4955234;28;19957;-69
2021/12/18 13:36:00;;;;;;;;;;;4.60;94.40;;;;;;4962162;28;19925;-69
2021/12/18 13:38:26;;;;;;;;;;;4.50;94.50;;;;;;4962161;29;19954;-69
2021/12/18 13:40:52;;;;;;;;;;;4.40;94.70;;;;;;4959795;28;19970;-69
2021/12/18 13:43:22;;;;;;;;;;;4.40;95.00;;;;;;4960454;29;20145;-69
2021/12/18 13:45:59;;;;;;;;;;;4.40;95.10;;;;;;4963129;28;20145;-69
2021/12/18 13:48:32;;;;;;;;;;;4.40;95.00;;;;;;4964056;28;20201;-69
2021/12/18 13:51:05;;;;;;;;;;;4.40;94.80;;;;;;4956546;28;20083;-70
2021/12/18 13:53:33;;;;;;;;;;;4.30;95.00;;;;;;4949518;29;19957;-71
2021/12/18 13:56:07;;;;;;;;;;;4.30;95.00;;;;;;4952489;28;20090;-71
2021/12/18 13:58:34;;;;;;;;;;;4.40;94.90;;;;;;4959616;29;19953;-72
2021/12/18 14:01:18;;;;;;;;;;;4.40;95.00;;;;;;4955922;28;19918;-71
2021/12/18 14:04:02;;;;;;;;;;;4.40;95.10;;;;;;4957562;28;19914;-71
2021/12/18 14:06:33;;;;;;;;;;;4.30;95.20;;;;;;4963289;28;19906;-71
2021/12/18 14:09:22;;;;;;;;;;;4.30;95.30;;;;;;4978488;28;20109;-71
2021/12/18 14:11:57;;;;;;;;;;;4.30;95.20;;;;;;4957448;29;19990;-71
2021/12/18 14:14:42;;;;;;;;;;;4.30;95.20;;;;;;4951405;28;19922;-71
2021/12/18 14:17:12;;;;;;;;;;;4.30;95.30;;;;;;4944015;29;19911;-71
2021/12/18 14:19:43;;;;;;;;;;;4.30;95.30;;;;;;4974043;28;19911;-71
2021/12/18 14:22:09;;;;;;;;;;;4.30;95.30;;;;;;4942473;29;20062;-71
2021/12/18 14:24:35;;;;;;;;;;;4.30;95.10;;;;;;4975076;28;19917;-71
2021/12/18 14:27:04;;;;;;;;;;;4.30;95.20;;;;;;4975196;28;19910;-71
2021/12/18 14:29:37;;;;;;;;;;;4.20;95.10;;;;;;4974568;28;19907;-72
2021/12/18 14:32:07;;;;;;;;;;;4.20;95.20;;;;;;4972004;28;19906;-72
2021/12/18 14:34:36;;;;;;;;;;;4.20;95.20;;;;;;4966006;28;19910;-71
2021/12/18 14:37:02;;;;;;;;;;;4.20;95.30;;;;;;4954498;29;19962;-71
2021/12/18 14:39:29;;;;;;;;;;;4.20;95.30;;;;;;4960741;28;19973;-71
2021/12/18 14:42:05;;;;;;;;;;;4.20;95.30;;;;;;4953031;29;19917;-72
2021/12/18 14:44:32;;;;;;;;;;;4.20;95.30;;;;;;4960242;28;19982;-71
2021/12/18 14:47:15;;;;;;;;;;;4.20;95.20;;;;;;4960292;28;19981;-71
2021/12/18 14:49:54;;;;;;;;;;;4.20;95.20;;;;;;4964069;28;20196;-70
2021/12/18 14:52:20;;;;;;;;;;;4.20;95.10;;;;;;4967381;28;19913;-70
2021/12/18 14:54:54;;;;;;;;;;;4.10;95.30;;;;;;4962585;28;19911;-70